createdAt,value
2023-06-24T00:00:40.651Z,17.03
2023-06-24T00:03:27.606Z,17.03
2023-06-24T00:06:19.279Z,13.83
2023-06-24T00:09:06.068Z,14.07
2023-06-24T00:11:53.037Z,17.77
2023-06-24T00:14:41.560Z,12.13
2023-06-24T00:17:29.356Z,17.33
2023-06-24T00:20:16.126Z,14.67
2023-06-24T00:23:02.803Z,13.03
2023-06-24T00:25:49.500Z,12.00
2023-06-24T00:28:36.244Z,10.67
2023-06-24T00:31:24.627Z,12.50
2023-06-24T00:34:11.643Z,16.43
2023-06-24T00:36:58.444Z,11.47
2023-06-24T00:39:47.532Z,16.30
2023-06-24T00:42:35.026Z,12.90
2023-06-24T00:45:22.533Z,26.50
2023-06-24T00:48:11.214Z,9.37
2023-06-24T00:50:59.797Z,14.97
2023-06-24T00:53:49.068Z,12.33
2023-06-24T00:56:39.578Z,14.40
2023-06-24T00:59:30.247Z,22.20
2023-06-24T01:02:16.680Z,21.10
2023-06-24T01:05:07.168Z,16.77
2023-06-24T01:07:57.364Z,15.07
2023-06-24T01:10:44.755Z,19.17
2023-06-24T01:13:32.934Z,13.43
2023-06-24T01:16:28.662Z,22.37
2023-06-24T01:19:40.815Z,16.87
2023-06-24T01:22:50.414Z,19.70
2023-06-24T01:25:50.197Z,13.43
2023-06-24T01:28:58.031Z,13.37
2023-06-24T01:31:50.948Z,16.87
2023-06-24T01:34:45.240Z,15.33
2023-06-24T01:37:37.638Z,14.00
2023-06-24T01:40:29.222Z,18.87
2023-06-24T01:43:17.601Z,16.17
2023-06-24T01:46:08.316Z,17.30
2023-06-24T01:49:00.256Z,19.70
2023-06-24T01:51:49.908Z,17.13
2023-06-24T01:54:37.836Z,14.83
2023-06-24T01:57:25.841Z,14.97
2023-06-24T02:00:14.958Z,20.90
2023-06-24T02:03:12.239Z,16.40
2023-06-24T02:06:02.057Z,13.37
2023-06-24T02:08:53.201Z,13.83
2023-06-24T02:11:42.007Z,15.13
2023-06-24T02:14:30.039Z,15.47
2023-06-24T02:17:17.060Z,20.97
2023-06-24T02:20:06.735Z,18.93
2023-06-24T02:22:55.606Z,14.27
2023-06-24T02:25:43.732Z,14.80
2023-06-24T02:28:31.337Z,13.33
2023-06-24T02:31:18.933Z,14.43
2023-06-24T02:34:06.229Z,13.77
2023-06-24T02:36:53.202Z,16.70
2023-06-24T02:39:45.456Z,24.57
2023-06-24T02:42:32.370Z,14.60
2023-06-24T02:45:20.601Z,14.77
2023-06-24T02:48:08.797Z,13.60
2023-06-24T02:50:56.407Z,15.60
2023-06-24T02:53:43.761Z,15.50
2023-06-24T02:56:34.760Z,16.80
2023-06-24T02:59:23.422Z,14.00
2023-06-24T03:02:10.784Z,15.47
2023-06-24T03:04:59.408Z,15.07
2023-06-24T03:07:47.132Z,22.30
2023-06-24T03:10:33.850Z,18.73
2023-06-24T03:13:22.317Z,19.83
2023-06-24T03:16:17.164Z,16.33
2023-06-24T03:19:13.155Z,13.93
2023-06-24T03:22:00.479Z,18.70
2023-06-24T03:24:47.583Z,15.97
2023-06-24T03:27:35.183Z,39.17
2023-06-24T03:30:24.208Z,18.30
2023-06-24T03:33:11.257Z,14.43
2023-06-24T03:35:58.240Z,18.23
2023-06-24T03:38:49.465Z,12.47
2023-06-24T03:41:36.658Z,35.17
2023-06-24T03:44:23.995Z,12.60
2023-06-24T03:47:13.058Z,14.33
2023-06-24T03:50:01.912Z,15.83
2023-06-24T03:52:49.495Z,17.60
2023-06-24T03:55:36.979Z,17.77
2023-06-24T03:58:25.702Z,16.80
2023-06-24T04:01:13.396Z,14.60
2023-06-24T04:04:03.126Z,14.40
2023-06-24T04:06:49.894Z,14.43
2023-06-24T04:09:37.253Z,19.47
2023-06-24T04:12:24.242Z,14.90
2023-06-24T04:15:11.362Z,14.53
2023-06-24T04:17:58.278Z,16.60
2023-06-24T04:20:46.436Z,16.67
2023-06-24T04:23:33.040Z,16.77
2023-06-24T04:26:20.150Z,20.20
2023-06-24T04:29:06.755Z,15.60
2023-06-24T04:31:53.456Z,12.63
2023-06-24T04:34:41.689Z,13.90
2023-06-24T04:37:29.683Z,12.07
2023-06-24T04:40:20.126Z,14.33
2023-06-24T04:43:06.920Z,14.10
2023-06-24T04:45:56.266Z,11.90
2023-06-24T04:48:42.710Z,10.43
2023-06-24T04:51:29.600Z,11.73
2023-06-24T04:54:18.077Z,11.47
2023-06-24T04:57:04.792Z,18.67
2023-06-24T04:59:51.398Z,12.27
2023-06-24T05:02:38.037Z,11.47
2023-06-24T05:05:24.792Z,13.07
2023-06-24T05:08:11.557Z,12.77
2023-06-24T05:10:59.970Z,12.73
2023-06-24T05:13:46.680Z,15.77
2023-06-24T05:16:33.542Z,12.77
2023-06-24T05:19:20.541Z,12.60
2023-06-24T05:22:07.277Z,15.37
2023-06-24T05:24:54.960Z,13.13
2023-06-24T05:27:45.419Z,13.80
2023-06-24T05:30:32.033Z,11.93
2023-06-24T05:33:18.707Z,9.80
2023-06-24T05:36:05.708Z,13.30
2023-06-24T05:38:52.292Z,16.97
2023-06-24T05:41:38.895Z,10.93
2023-06-24T05:44:27.062Z,15.23
2023-06-24T05:47:13.923Z,11.50
2023-06-24T05:50:00.705Z,12.73
2023-06-24T05:52:47.564Z,11.50
2023-06-24T05:55:34.577Z,14.10
2023-06-24T05:58:21.467Z,15.63
2023-06-24T06:01:09.536Z,11.03
2023-06-24T06:03:58.820Z,8.10
2023-06-24T06:06:45.828Z,16.63
2023-06-24T06:09:32.441Z,16.27
2023-06-24T06:12:19.190Z,14.63
2023-06-24T06:15:06.614Z,14.83
2023-06-24T06:17:54.903Z,9.63
2023-06-24T06:20:41.524Z,12.90
2023-06-24T06:23:28.596Z,16.07
2023-06-24T06:26:15.402Z,12.90
2023-06-24T06:29:01.818Z,9.90
2023-06-24T06:31:48.729Z,12.27
2023-06-24T06:34:37.913Z,12.67
2023-06-24T06:37:24.681Z,12.47
2023-06-24T06:40:12.008Z,12.30
2023-06-24T06:42:58.925Z,10.87
2023-06-24T06:45:45.689Z,12.50
2023-06-24T06:48:32.367Z,13.57
2023-06-24T06:51:21.431Z,10.87
2023-06-24T06:54:10.306Z,9.70
2023-06-24T06:57:06.217Z,10.20
2023-06-24T06:59:54.321Z,13.43
2023-06-24T07:02:43.910Z,12.30
2023-06-24T07:05:32.544Z,10.60
2023-06-24T07:08:42.045Z,14.17
2023-06-24T07:11:35.741Z,10.83
2023-06-24T07:14:24.053Z,9.63
2023-06-24T07:17:12.481Z,9.37
2023-06-24T07:20:02.134Z,17.17
2023-06-24T07:22:52.597Z,15.97
2023-06-24T07:25:46.105Z,14.57
2023-06-24T07:28:35.399Z,8.83
2023-06-24T07:31:24.435Z,13.93
2023-06-24T07:34:12.517Z,12.17
2023-06-24T07:37:14.904Z,13.90
2023-06-24T07:40:14.434Z,11.87
2023-06-24T07:43:09.867Z,17.30
2023-06-24T07:45:59.837Z,12.50
2023-06-24T07:48:48.879Z,9.47
2023-06-24T07:51:37.233Z,16.20
2023-06-24T07:54:26.070Z,11.60
2023-06-24T07:57:16.036Z,9.93
2023-06-24T08:00:11.406Z,13.43
2023-06-24T08:03:04.768Z,10.23
2023-06-24T08:05:56.883Z,10.43
2023-06-24T08:08:47.312Z,11.80
2023-06-24T08:11:33.926Z,12.40
2023-06-24T08:14:29.269Z,11.83
2023-06-24T08:17:19.533Z,17.90
2023-06-24T08:20:08.401Z,6.87
2023-06-24T08:22:56.186Z,25.77
2023-06-24T08:25:43.661Z,9.57
2023-06-24T08:28:31.316Z,9.37
2023-06-24T08:31:18.810Z,8.30
2023-06-24T08:34:08.375Z,12.07
2023-06-24T08:36:55.428Z,9.53
2023-06-24T08:39:46.391Z,10.90
2023-06-24T08:42:33.208Z,6.87
2023-06-24T08:45:20.805Z,7.37
2023-06-24T08:48:08.186Z,6.93
2023-06-24T08:51:00.332Z,11.60
2023-06-24T08:53:47.825Z,10.10
2023-06-24T08:56:37.042Z,7.30
2023-06-24T08:59:24.997Z,7.40
2023-06-24T09:02:12.476Z,8.80
2023-06-24T09:04:59.206Z,10.40
2023-06-24T09:07:47.454Z,10.90
2023-06-24T09:10:35.539Z,8.57
2023-06-24T09:13:24.175Z,7.50
2023-06-24T09:16:17.356Z,9.67
2023-06-24T09:19:03.852Z,5.93
2023-06-24T09:21:50.747Z,8.30
2023-06-24T09:24:39.816Z,6.63
2023-06-24T09:27:36.536Z,9.20
2023-06-24T09:30:26.725Z,9.73
2023-06-24T09:33:16.204Z,10.43
2023-06-24T09:36:05.735Z,8.83
2023-06-24T09:38:52.134Z,13.77
2023-06-24T09:41:42.925Z,8.47
2023-06-24T09:44:30.486Z,7.60
2023-06-24T09:47:17.985Z,9.20
2023-06-24T09:50:05.249Z,5.30
2023-06-24T09:52:52.955Z,6.20
2023-06-24T09:55:44.889Z,8.93
2023-06-24T09:58:34.773Z,7.40
2023-06-24T10:01:22.139Z,5.43
2023-06-24T10:04:10.147Z,11.23
2023-06-24T10:06:57.282Z,9.80
2023-06-24T10:09:44.242Z,5.27
2023-06-24T10:12:33.023Z,10.53
2023-06-24T10:15:27.304Z,8.80
2023-06-24T10:18:34.900Z,9.47
2023-06-24T10:21:21.877Z,6.77
2023-06-24T10:24:08.893Z,6.20
2023-06-24T10:26:57.786Z,6.63
2023-06-24T10:29:48.374Z,8.37
2023-06-24T10:32:45.689Z,6.93
2023-06-24T10:35:33.501Z,5.73
2023-06-24T10:38:20.129Z,5.90
2023-06-24T10:41:19.851Z,6.50
2023-06-24T10:44:17.107Z,8.17
2023-06-24T10:47:03.969Z,7.10
2023-06-24T10:49:52.498Z,5.27
2023-06-24T10:52:40.743Z,5.77
2023-06-24T10:55:27.853Z,4.27
2023-06-24T10:58:16.752Z,4.40
2023-06-24T11:01:13.231Z,6.67
2023-06-24T11:04:09.614Z,6.50
2023-06-24T11:07:02.784Z,6.17
2023-06-24T11:09:53.287Z,4.40
2023-06-24T11:12:40.650Z,6.27
2023-06-24T11:15:27.307Z,5.20
2023-06-24T11:18:14.110Z,6.67
2023-06-24T11:21:01.107Z,4.13
2023-06-24T11:23:49.073Z,8.87
2023-06-24T11:26:36.171Z,7.53
2023-06-24T11:29:22.972Z,8.87
2023-06-24T11:32:10.936Z,5.03
2023-06-24T11:34:57.546Z,7.93
2023-06-24T11:37:45.573Z,5.30
2023-06-24T11:40:35.416Z,10.93
2023-06-24T11:43:24.056Z,6.07
2023-06-24T11:46:12.184Z,4.87
2023-06-24T11:49:07.860Z,6.27
2023-06-24T11:51:55.168Z,9.17
2023-06-24T11:54:44.124Z,6.00
2023-06-24T11:57:52.717Z,6.07
2023-06-24T12:00:42.430Z,7.30
2023-06-24T12:03:38.058Z,9.87
2023-06-24T12:06:27.010Z,6.20
2023-06-24T12:09:13.810Z,8.27
2023-06-24T12:12:01.123Z,6.03
2023-06-24T12:14:48.914Z,6.60
2023-06-24T12:17:38.112Z,5.70
2023-06-24T12:20:29.662Z,6.87
2023-06-24T12:23:19.085Z,7.60
2023-06-24T12:26:07.456Z,6.60
2023-06-24T12:28:56.610Z,10.60
2023-06-24T12:31:45.408Z,5.10
2023-06-24T12:34:32.145Z,6.33
2023-06-24T12:37:20.532Z,5.87
2023-06-24T12:40:10.051Z,5.87
2023-06-24T12:42:59.334Z,7.67
2023-06-24T12:45:52.879Z,5.07
2023-06-24T12:48:41.601Z,4.00
2023-06-24T12:51:28.539Z,3.73
2023-06-24T12:54:15.225Z,5.80
2023-06-24T12:57:13.550Z,4.87
2023-06-24T13:00:01.243Z,5.23
2023-06-24T13:02:49.501Z,6.03
2023-06-24T13:05:37.690Z,5.63
2023-06-24T13:08:24.649Z,7.93
2023-06-24T13:11:11.401Z,4.27
2023-06-24T13:13:58.116Z,8.30
2023-06-24T13:16:44.857Z,4.50
2023-06-24T13:19:33.853Z,5.23
2023-06-24T13:22:22.765Z,5.47
2023-06-24T13:25:13.572Z,4.67
2023-06-24T13:28:03.231Z,5.67
2023-06-24T13:30:53.764Z,4.13
2023-06-24T13:33:41.050Z,7.03
2023-06-24T13:36:36.627Z,4.37
2023-06-24T13:39:25.068Z,4.63
2023-06-24T13:42:12.135Z,4.13
2023-06-24T13:44:58.607Z,6.47
2023-06-24T13:47:45.601Z,6.13
2023-06-24T13:50:32.474Z,4.53
2023-06-24T13:53:19.237Z,5.23
2023-06-24T13:56:07.423Z,2.90
2023-06-24T13:58:56.474Z,5.47
2023-06-24T14:01:43.536Z,4.20
2023-06-24T14:04:31.144Z,6.53
2023-06-24T14:07:18.319Z,8.17
2023-06-24T14:10:06.651Z,6.27
2023-06-24T14:12:55.155Z,7.17
2023-06-24T14:15:43.152Z,5.73
2023-06-24T14:18:37.191Z,3.97
2023-06-24T14:21:24.332Z,6.03
2023-06-24T14:24:16.740Z,5.13
2023-06-24T14:27:05.999Z,6.33
2023-06-24T14:30:01.867Z,4.27
2023-06-24T14:32:49.003Z,6.03
2023-06-24T14:35:39.145Z,5.90
2023-06-24T14:38:29.406Z,5.30
2023-06-24T14:41:16.702Z,8.30
2023-06-24T14:44:03.645Z,6.87
2023-06-24T14:46:51.777Z,3.13
2023-06-24T14:49:38.680Z,4.30
2023-06-24T14:52:25.523Z,3.83
2023-06-24T14:55:12.466Z,3.23
2023-06-24T14:57:59.899Z,11.00
2023-06-24T15:00:46.786Z,6.83
2023-06-24T15:03:35.089Z,5.67
2023-06-24T15:06:22.118Z,5.30
2023-06-24T15:09:09.214Z,7.83
2023-06-24T15:11:59.741Z,3.80
2023-06-24T15:14:49.716Z,12.10
2023-06-24T15:17:41.919Z,3.73
2023-06-24T15:20:30.057Z,4.47
2023-06-24T15:23:16.727Z,4.23
2023-06-24T15:26:03.539Z,4.20
2023-06-24T15:28:50.261Z,7.13
2023-06-24T15:31:37.242Z,4.33
2023-06-24T15:34:23.933Z,5.97
2023-06-24T15:37:12.081Z,3.30
2023-06-24T15:39:58.831Z,7.93
2023-06-24T15:42:45.602Z,4.57
2023-06-24T15:45:32.356Z,5.33
2023-06-24T15:48:19.135Z,13.13
2023-06-24T15:51:08.465Z,5.20
2023-06-24T15:53:57.831Z,7.07
2023-06-24T15:56:58.406Z,3.73
2023-06-24T15:59:47.600Z,7.10
2023-06-24T16:02:34.236Z,4.47
2023-06-24T16:05:20.970Z,5.03
2023-06-24T16:08:07.814Z,4.47
2023-06-24T16:10:55.829Z,6.10
2023-06-24T16:13:42.706Z,9.00
2023-06-24T16:16:29.504Z,3.97
2023-06-24T16:19:16.378Z,7.17
2023-06-24T16:22:03.312Z,5.73
2023-06-24T16:24:50.877Z,5.87
2023-06-24T16:27:38.998Z,9.83
2023-06-24T16:30:25.612Z,5.47
2023-06-24T16:33:12.464Z,5.87
2023-06-24T16:35:59.282Z,8.00
2023-06-24T16:38:46.278Z,7.23
2023-06-24T16:41:34.177Z,6.10
2023-06-24T16:44:22.781Z,9.33
2023-06-24T16:47:09.735Z,4.70
2023-06-24T16:49:56.561Z,4.50
2023-06-24T16:52:43.263Z,6.17
2023-06-24T16:55:30.127Z,6.23
2023-06-24T16:58:16.982Z,4.60
2023-06-24T17:01:06.291Z,9.83
2023-06-24T17:03:54.679Z,5.37
2023-06-24T17:06:41.426Z,7.20
2023-06-24T17:09:28.204Z,10.33
2023-06-24T17:12:14.905Z,4.97
2023-06-24T17:15:01.698Z,7.10
2023-06-24T17:17:50.025Z,5.27
2023-06-24T17:20:37.299Z,3.80
2023-06-24T17:23:25.032Z,3.27
2023-06-24T17:26:11.772Z,3.37
2023-06-24T17:28:58.576Z,5.93
2023-06-24T17:31:45.403Z,3.60
2023-06-24T17:34:33.749Z,6.47
2023-06-24T17:37:20.560Z,5.33
2023-06-24T17:40:08.899Z,6.03
2023-06-24T17:42:57.706Z,4.40
2023-06-24T17:45:44.477Z,7.43
2023-06-24T17:48:31.318Z,9.93
2023-06-24T17:51:19.540Z,6.07
2023-06-24T17:54:06.203Z,6.87
2023-06-24T17:56:53.111Z,4.23
2023-06-24T17:59:40.012Z,5.57
2023-06-24T18:02:26.898Z,5.33
2023-06-24T18:05:13.722Z,5.80
2023-06-24T18:08:03.661Z,6.27
2023-06-24T18:10:52.127Z,7.97
2023-06-24T18:13:39.199Z,6.50
2023-06-24T18:16:26.030Z,6.13
2023-06-24T18:19:12.826Z,12.07
2023-06-24T18:22:01.541Z,4.60
2023-06-24T18:24:49.554Z,5.90
2023-06-24T18:27:36.563Z,4.97
2023-06-24T18:30:23.283Z,5.93
2023-06-24T18:33:10.190Z,5.43
2023-06-24T18:35:57.594Z,8.10
2023-06-24T18:38:44.077Z,7.73
2023-06-24T18:41:33.825Z,8.80
2023-06-24T18:44:21.356Z,5.87
2023-06-24T18:47:09.365Z,5.13
2023-06-24T18:49:57.081Z,6.60
2023-06-24T18:52:43.888Z,8.83
2023-06-24T18:55:30.653Z,7.13
2023-06-24T18:58:18.960Z,8.63
2023-06-24T19:01:05.644Z,5.43
2023-06-24T19:03:52.051Z,5.00
2023-06-24T19:06:43.988Z,9.07
2023-06-24T19:09:34.206Z,5.80
2023-06-24T19:12:23.231Z,6.40
2023-06-24T19:15:14.463Z,6.70
2023-06-24T19:18:02.422Z,14.10
2023-06-24T19:20:51.967Z,11.03
2023-06-24T19:23:40.392Z,6.37
2023-06-24T19:26:30.396Z,4.57
2023-06-24T19:29:21.613Z,5.23
2023-06-24T19:32:11.995Z,6.67
2023-06-24T19:35:02.546Z,4.67
2023-06-24T19:37:50.354Z,5.13
2023-06-24T19:40:37.624Z,5.63
2023-06-24T19:43:25.272Z,7.57
2023-06-24T19:46:12.219Z,5.20
2023-06-24T19:48:59.889Z,6.70
2023-06-24T19:51:46.691Z,10.43
2023-06-24T19:54:38.734Z,7.73
2023-06-24T19:57:25.704Z,10.93
2023-06-24T20:00:15.764Z,7.27
2023-06-24T20:03:03.867Z,8.53
2023-06-24T20:05:52.304Z,5.60
2023-06-24T20:08:39.107Z,8.50
2023-06-24T20:11:25.944Z,8.20
2023-06-24T20:14:12.980Z,6.07
2023-06-24T20:16:59.782Z,6.07
2023-06-24T20:19:47.818Z,5.77
2023-06-24T20:22:37.522Z,5.93
2023-06-24T20:25:25.049Z,6.80
2023-06-24T20:28:13.113Z,8.37
2023-06-24T20:31:03.707Z,7.83
2023-06-24T20:33:50.484Z,8.43
2023-06-24T20:36:37.255Z,7.70
2023-06-24T20:39:27.253Z,7.07
2023-06-24T20:42:14.125Z,7.67
2023-06-24T20:45:00.867Z,17.73
2023-06-24T20:47:47.723Z,8.13
2023-06-24T20:50:34.752Z,12.60
2023-06-24T20:53:21.993Z,11.47
2023-06-24T20:56:11.424Z,6.77
2023-06-24T20:58:58.140Z,10.30
2023-06-24T21:01:57.471Z,7.07
2023-06-24T21:04:51.034Z,7.83
2023-06-24T21:07:38.037Z,7.47
2023-06-24T21:10:24.894Z,11.83
2023-06-24T21:13:13.198Z,9.40
2023-06-24T21:15:59.821Z,6.90
2023-06-24T21:18:46.597Z,10.40
2023-06-24T21:21:33.459Z,8.23
2023-06-24T21:24:20.293Z,7.53
2023-06-24T21:27:07.239Z,9.93
2023-06-24T21:29:55.260Z,6.93
2023-06-24T21:32:41.883Z,9.83
2023-06-24T21:35:28.635Z,7.67
2023-06-24T21:38:15.436Z,9.17
2023-06-24T21:41:03.186Z,10.57
2023-06-24T21:43:51.355Z,8.30
2023-06-24T21:46:39.285Z,12.60
2023-06-24T21:49:26.084Z,9.60
2023-06-24T21:52:12.941Z,9.00
2023-06-24T21:54:59.628Z,8.97
2023-06-24T21:57:46.561Z,12.53
2023-06-24T22:00:33.287Z,9.30
2023-06-24T22:03:21.846Z,9.67
2023-06-24T22:06:09.389Z,10.90
2023-06-24T22:08:57.599Z,13.00
2023-06-24T22:11:47.492Z,13.10
2023-06-24T22:14:34.258Z,13.00
2023-06-24T22:17:21.614Z,9.90
2023-06-24T22:20:12.266Z,11.33
2023-06-24T22:22:59.727Z,8.50
2023-06-24T22:25:46.338Z,11.60
2023-06-24T22:28:33.241Z,12.07
2023-06-24T22:31:20.242Z,12.03
2023-06-24T22:34:07.824Z,13.17
2023-06-24T22:36:56.038Z,13.87
2023-06-24T22:39:42.798Z,13.03
2023-06-24T22:42:29.623Z,15.50
2023-06-24T22:45:16.375Z,10.73
2023-06-24T22:48:03.325Z,12.43
2023-06-24T22:50:50.469Z,11.93
2023-06-24T22:53:42.318Z,13.20
2023-06-24T22:56:29.652Z,12.83
2023-06-24T22:59:16.838Z,15.50
2023-06-24T23:02:04.076Z,11.80
2023-06-24T23:04:51.175Z,12.03
2023-06-24T23:07:38.290Z,13.73
2023-06-24T23:10:27.245Z,9.07
2023-06-24T23:13:14.501Z,11.10
2023-06-24T23:16:02.428Z,16.73
2023-06-24T23:18:49.605Z,14.77
2023-06-24T23:21:37.141Z,10.10
2023-06-24T23:24:24.088Z,14.67
2023-06-24T23:27:13.130Z,16.20
2023-06-24T23:30:02.190Z,12.80
2023-06-24T23:32:50.493Z,12.63
2023-06-24T23:35:37.732Z,12.33
2023-06-24T23:38:24.704Z,11.67
2023-06-24T23:41:12.295Z,15.57
2023-06-24T23:44:01.088Z,16.33
2023-06-24T23:46:47.680Z,14.40
2023-06-24T23:49:34.380Z,14.83
2023-06-24T23:52:21.119Z,12.67
2023-06-24T23:55:08.228Z,17.37
2023-06-24T23:57:54.575Z,12.90
